sim
Sign-in with your pilot id or email,
or register
Callsign
Passwort

Schedule Details

Flight Number: RYR2516 (2)
Departure: Bratislava M. R. Stefanik Airport (LZIB) at 09:00
Arrival: Madrid Barajas Airport (LEMD) at 12:10
Route: Ryanair Passenger Schedule. Enter filed route here before submitting Pirep.

Weather Information
Getting current METAR information for LZIB 310730Z 34009KT 320V020 9999 -RA FEW023 BKN052 BKN066 11/07 Q1015 WS R13 TEMPO RA
Getting current METAR information for LEMD 310730Z 05001KT CAVOK 22/10 Q1013 NOSIG

Schedule Frequency

Route Map